上海/浦東 の空港の天気 - METARとTAF

上海浦東国際空港 ( ZSPD / PVG ) - 中国 上海市
飛行場実況気象(Metar)
観測時間07/29 10:30 CST (07/29 02:30 UTC)
風向・風速南 8m/s
視程10km以上
天気現象
全天の8割程度の雲 雲底高度 610m
気温31℃
湿度79%
気圧998hPa
METARZSPD 290230Z 17008MPS 9999 BKN020 31/27 Q0998 NOSIG
過去の天気等 Google飛行場航空写真 Wunderground天気予報

過去48時間のMETAR

飛行場予報(TAF)
発表時間: 7/29 05:02 CST (7/28 21:02 UTC)
予報対象時間: 29日8時 CST ~ 30日8時 CST
風向・風速南南東 7m/s
視程6000m
全天の8割程度の雲 雲底高度 300m
29日10時 CST ~ 29日11時 CST に徐々に
全天の8割程度の雲 雲底高度 460m
TAF ZSPD 282102Z 2900/2924 15007MPS 6000 BKN010 TX31/2906Z TN26/2920Z
BECMG 2902/2903 BKN015